createdAt,value
2023-04-25T00:01:34.676Z,43.07
2023-04-25T00:04:01.380Z,43.37
2023-04-25T00:06:28.941Z,43.46
2023-04-25T00:08:55.377Z,43.30
2023-04-25T00:11:21.840Z,43.53
2023-04-25T00:13:49.345Z,43.38
2023-04-25T00:16:16.902Z,43.53
2023-04-25T00:18:43.377Z,43.59
2023-04-25T00:21:09.844Z,43.52
2023-04-25T00:23:36.294Z,43.45
2023-04-25T00:26:03.670Z,43.62
2023-04-25T00:28:30.126Z,43.42
2023-04-25T00:30:56.600Z,43.87
2023-04-25T00:33:23.944Z,43.85
2023-04-25T00:35:50.422Z,43.44
2023-04-25T00:38:16.908Z,43.96
2023-04-25T00:40:43.387Z,44.03
2023-04-25T00:43:09.836Z,43.85
2023-04-25T00:45:36.283Z,43.64
2023-04-25T00:48:03.707Z,43.98
2023-04-25T00:50:30.209Z,44.05
2023-04-25T00:52:56.657Z,43.82
2023-04-25T00:55:23.115Z,44.19
2023-04-25T00:57:49.574Z,44.01
2023-04-25T01:00:16.935Z,44.23
2023-04-25T01:02:43.621Z,44.16
2023-04-25T01:05:10.332Z,44.57
2023-04-25T01:07:36.797Z,44.43
2023-04-25T01:10:04.188Z,44.22
2023-04-25T01:12:30.664Z,44.70
2023-04-25T01:14:57.105Z,44.52
2023-04-25T01:17:23.558Z,44.52
2023-04-25T01:19:50.046Z,44.66
2023-04-25T01:22:17.433Z,44.75
2023-04-25T01:24:43.888Z,44.50
2023-04-25T01:27:11.265Z,44.70
2023-04-25T01:29:37.748Z,44.71
2023-04-25T01:32:04.450Z,44.77
2023-04-25T01:34:31.061Z,44.85
2023-04-25T01:36:58.431Z,44.94
2023-04-25T01:39:24.882Z,45.22
2023-04-25T01:41:51.333Z,45.46
2023-04-25T01:44:17.844Z,45.25
2023-04-25T01:46:44.390Z,45.18
2023-04-25T01:49:10.856Z,45.38
2023-04-25T01:51:38.235Z,45.43
2023-04-25T01:54:05.633Z,45.03
2023-04-25T01:56:32.075Z,45.10
2023-04-25T01:58:58.508Z,45.27
2023-04-25T02:01:25.859Z,45.51
2023-04-25T02:03:52.737Z,45.58
2023-04-25T02:06:20.449Z,45.62
2023-04-25T02:08:47.807Z,45.71
2023-04-25T02:11:14.285Z,45.46
2023-04-25T02:13:40.709Z,45.81
2023-04-25T02:16:08.145Z,45.87
2023-04-25T02:18:34.732Z,45.87
2023-04-25T02:21:02.089Z,45.60
2023-04-25T02:23:29.444Z,46.04
2023-04-25T02:25:56.785Z,45.97
2023-04-25T02:28:24.142Z,45.96
2023-04-25T02:30:51.393Z,46.16
2023-04-25T02:33:18.725Z,45.97
2023-04-25T02:35:46.027Z,45.88
2023-04-25T02:38:13.386Z,45.88
2023-04-25T02:40:40.698Z,46.53
2023-04-25T02:43:07.167Z,46.09
2023-04-25T02:45:33.600Z,46.34
2023-04-25T02:48:00.934Z,46.15
2023-04-25T02:50:27.359Z,46.13
2023-04-25T02:52:56.531Z,46.38
2023-04-25T02:55:22.933Z,46.00
2023-04-25T02:57:50.202Z,46.03
2023-04-25T03:00:16.618Z,45.95
2023-04-25T03:02:43.206Z,46.01
2023-04-25T03:05:09.695Z,46.28
2023-04-25T03:07:36.936Z,46.12
2023-04-25T03:10:03.439Z,45.99
2023-04-25T03:12:30.665Z,46.04
2023-04-25T03:14:57.921Z,45.83
2023-04-25T03:17:24.442Z,46.10
2023-04-25T03:19:50.944Z,46.14
2023-04-25T03:22:17.439Z,46.23
2023-04-25T03:24:44.750Z,46.05
2023-04-25T03:27:13.051Z,45.93
2023-04-25T03:29:39.514Z,45.99
2023-04-25T03:32:06.795Z,46.24
2023-04-25T03:34:34.055Z,45.93
2023-04-25T03:37:00.483Z,45.47
2023-04-25T03:39:26.949Z,45.33
2023-04-25T03:41:54.252Z,45.46
2023-04-25T03:44:20.697Z,45.44
2023-04-25T03:46:49.858Z,45.25
2023-04-25T03:49:18.662Z,45.25
2023-04-25T03:51:45.899Z,45.25
2023-04-25T03:54:12.301Z,45.19
2023-04-25T03:56:38.738Z,44.92
2023-04-25T03:59:05.152Z,45.42
2023-04-25T04:01:31.552Z,44.77
2023-04-25T04:03:58.404Z,45.10
2023-04-25T04:06:25.170Z,45.04
2023-04-25T04:08:52.375Z,44.96
2023-04-25T04:11:18.730Z,44.96
2023-04-25T04:13:45.182Z,44.97
2023-04-25T04:16:14.354Z,44.80
2023-04-25T04:18:43.542Z,44.79
2023-04-25T04:23:39.810Z,44.70
2023-04-25T04:26:06.417Z,45.08
2023-04-25T04:31:00.055Z,45.00
2023-04-25T04:33:29.239Z,44.80
2023-04-25T04:35:55.608Z,44.71
2023-04-25T04:38:22.858Z,45.13
2023-04-25T04:40:50.089Z,45.09
2023-04-25T04:43:17.296Z,45.21
2023-04-25T04:45:46.419Z,45.13
2023-04-25T04:48:12.887Z,45.69
2023-04-25T04:50:39.379Z,46.18
2023-04-25T04:53:05.796Z,46.36
2023-04-25T04:55:33.027Z,46.29
2023-04-25T04:57:59.507Z,46.87
2023-04-25T05:00:27.107Z,46.65
2023-04-25T05:02:55.032Z,47.06
2023-04-25T05:05:21.485Z,46.99
2023-04-25T05:07:48.686Z,46.48
2023-04-25T05:10:15.042Z,46.99
2023-04-25T05:12:44.191Z,46.79
2023-04-25T05:15:10.550Z,47.05
2023-04-25T05:17:36.932Z,47.24
2023-04-25T05:20:03.388Z,47.48
2023-04-25T05:22:29.810Z,46.96
2023-04-25T05:24:56.390Z,47.12
2023-04-25T05:27:25.676Z,47.26
2023-04-25T05:29:52.092Z,47.42
2023-04-25T05:32:18.555Z,47.38
2023-04-25T05:34:44.993Z,47.75
2023-04-25T05:37:12.281Z,47.49
2023-04-25T05:39:39.558Z,47.50
2023-04-25T05:42:05.930Z,47.40
2023-04-25T05:44:32.340Z,47.06
2023-04-25T05:46:58.767Z,47.39
2023-04-25T05:49:25.173Z,47.36
2023-04-25T05:51:51.563Z,47.69
2023-04-25T05:54:17.967Z,47.48
2023-04-25T05:56:44.402Z,47.82
2023-04-25T05:59:11.610Z,47.67
2023-04-25T06:01:38.843Z,47.42
2023-04-25T06:04:05.505Z,47.17
2023-04-25T06:06:34.861Z,46.83
2023-04-25T06:09:01.284Z,46.91
2023-04-25T06:11:27.607Z,46.88
2023-04-25T06:13:56.723Z,46.72
2023-04-25T06:16:23.996Z,46.95
2023-04-25T06:18:50.451Z,47.67
2023-04-25T06:21:16.866Z,47.35
2023-04-25T06:23:46.357Z,47.69
2023-04-25T06:26:12.768Z,47.67
2023-04-25T06:28:39.189Z,47.93
2023-04-25T06:31:05.700Z,47.65
2023-04-25T06:33:35.655Z,48.05
2023-04-25T06:36:02.063Z,47.89
2023-04-25T06:38:29.425Z,47.88
2023-04-25T06:40:55.899Z,47.86
2023-04-25T06:43:23.128Z,47.90
2023-04-25T06:45:51.412Z,48.32
2023-04-25T06:48:18.869Z,48.27
2023-04-25T06:50:45.284Z,48.36
2023-04-25T06:53:11.699Z,48.43
2023-04-25T06:55:38.981Z,48.09
2023-04-25T06:58:07.265Z,48.59
2023-04-25T07:00:33.686Z,48.57
2023-04-25T07:03:03.057Z,48.68
2023-04-25T07:05:29.515Z,48.14
2023-04-25T07:07:55.973Z,48.14
2023-04-25T07:10:22.337Z,47.68
2023-04-25T07:12:48.706Z,47.72
2023-04-25T07:15:15.062Z,47.82
2023-04-25T07:17:41.423Z,47.57
2023-04-25T07:20:07.822Z,47.76
2023-04-25T07:22:34.150Z,47.72
2023-04-25T07:25:00.551Z,47.50
2023-04-25T07:27:26.964Z,47.69
2023-04-25T07:29:54.203Z,47.23
2023-04-25T07:32:20.688Z,47.05
2023-04-25T07:34:47.077Z,46.73
2023-04-25T07:37:13.410Z,46.53
2023-04-25T07:39:40.656Z,46.33
2023-04-25T07:42:07.893Z,46.21
2023-04-25T07:44:35.152Z,45.94
2023-04-25T07:47:03.902Z,46.15
2023-04-25T07:49:31.699Z,46.41
2023-04-25T07:51:58.053Z,46.39
2023-04-25T07:54:25.309Z,46.56
2023-04-25T07:56:54.489Z,46.85
2023-04-25T07:59:21.710Z,46.81
2023-04-25T08:01:48.048Z,46.62
2023-04-25T08:04:14.642Z,46.49
2023-04-25T08:06:41.360Z,46.68
2023-04-25T08:09:07.742Z,46.49
2023-04-25T08:11:34.984Z,46.57
2023-04-25T08:14:04.152Z,46.70
2023-04-25T08:16:30.790Z,46.89
2023-04-25T08:18:57.407Z,46.81
2023-04-25T08:21:23.893Z,46.94
2023-04-25T08:23:50.254Z,46.59
2023-04-25T08:26:18.480Z,46.66
2023-04-25T08:28:44.917Z,47.05
2023-04-25T08:31:11.409Z,46.83
2023-04-25T08:33:37.861Z,46.65
2023-04-25T08:36:04.322Z,46.93
2023-04-25T08:38:30.745Z,46.98
2023-04-25T08:41:00.118Z,46.72
2023-04-25T08:43:28.421Z,46.98
2023-04-25T08:45:56.680Z,47.03
2023-04-25T08:48:25.853Z,47.17
2023-04-25T08:50:53.100Z,47.21
2023-04-25T08:53:19.842Z,46.95
2023-04-25T08:55:48.216Z,46.93
2023-04-25T08:58:16.508Z,46.59
2023-04-25T09:00:43.021Z,46.69
2023-04-25T09:03:09.892Z,46.68
2023-04-25T09:05:36.509Z,46.74
2023-04-25T09:08:02.932Z,46.59
2023-04-25T09:10:29.289Z,46.70
2023-04-25T09:12:55.730Z,46.85
2023-04-25T09:15:22.193Z,47.35
2023-04-25T09:17:48.612Z,47.02
2023-04-25T09:20:15.064Z,47.08
2023-04-25T09:22:42.277Z,46.63
2023-04-25T09:25:09.610Z,46.95
2023-04-25T09:27:36.824Z,46.93
2023-04-25T09:30:03.232Z,47.01
2023-04-25T09:32:29.714Z,47.50
2023-04-25T09:34:57.068Z,47.59
2023-04-25T09:37:23.508Z,47.63
2023-04-25T09:39:51.950Z,47.76
2023-04-25T09:42:18.434Z,47.67
2023-04-25T09:44:44.876Z,47.46
2023-04-25T09:47:11.256Z,47.28
2023-04-25T09:49:38.442Z,47.11
2023-04-25T09:52:04.876Z,47.22
2023-04-25T09:54:31.266Z,46.90
2023-04-25T09:56:58.586Z,47.03
2023-04-25T09:59:24.948Z,46.94
2023-04-25T10:01:54.451Z,46.78
2023-04-25T10:04:21.122Z,46.70
2023-04-25T10:06:50.383Z,46.68
2023-04-25T10:09:18.741Z,46.67
2023-04-25T10:11:45.195Z,46.67
2023-04-25T10:14:11.593Z,46.47
2023-04-25T10:16:40.786Z,46.71
2023-04-25T10:19:09.966Z,46.80
2023-04-25T10:21:39.120Z,46.42
2023-04-25T10:24:06.352Z,46.71
2023-04-25T10:26:32.799Z,46.43
2023-04-25T10:28:59.219Z,46.52
2023-04-25T10:31:25.759Z,46.36
2023-04-25T10:33:52.617Z,46.61
2023-04-25T10:36:20.072Z,46.56
2023-04-25T10:38:47.331Z,46.38
2023-04-25T10:41:13.778Z,46.29
2023-04-25T10:43:40.286Z,46.29
2023-04-25T10:46:09.480Z,46.37
2023-04-25T10:48:36.729Z,46.56
2023-04-25T10:51:03.153Z,46.42
2023-04-25T10:53:29.648Z,46.15
2023-04-25T10:55:57.948Z,46.40
2023-04-25T10:58:25.199Z,46.43
2023-04-25T11:00:57.646Z,46.34
2023-04-25T11:03:25.381Z,46.22
2023-04-25T11:05:58.343Z,46.19
2023-04-25T11:08:25.902Z,46.47
2023-04-25T11:10:52.372Z,46.50
2023-04-25T11:13:18.857Z,46.07
2023-04-25T11:15:45.361Z,46.34
2023-04-25T11:18:11.811Z,46.36
2023-04-25T11:20:39.487Z,46.06
2023-04-25T11:23:06.782Z,46.08
2023-04-25T11:25:34.412Z,46.00
2023-04-25T11:28:02.758Z,46.15
2023-04-25T11:30:30.069Z,46.08
2023-04-25T11:32:57.332Z,45.85
2023-04-25T11:35:23.841Z,46.07
2023-04-25T11:37:50.371Z,45.97
2023-04-25T11:40:18.728Z,46.04
2023-04-25T11:42:45.987Z,45.82
2023-04-25T11:45:13.281Z,45.84
2023-04-25T11:47:41.627Z,45.68
2023-04-25T11:50:08.919Z,45.86
2023-04-25T11:52:35.417Z,45.73
2023-04-25T11:55:01.920Z,45.77
2023-04-25T11:57:30.247Z,45.62
2023-04-25T11:59:56.682Z,45.57
2023-04-25T12:02:23.985Z,45.79
2023-04-25T12:04:50.988Z,45.49
2023-04-25T12:07:18.501Z,45.57
2023-04-25T12:09:45.750Z,45.57
2023-04-25T12:12:13.007Z,45.83
2023-04-25T12:14:39.376Z,45.58
2023-04-25T12:17:06.619Z,45.51
2023-04-25T12:19:35.803Z,45.51
2023-04-25T12:22:04.250Z,45.34
2023-04-25T12:24:32.648Z,45.65
2023-04-25T12:26:59.891Z,45.63
2023-04-25T12:29:32.017Z,45.33
2023-04-25T12:32:01.696Z,45.28
2023-04-25T12:34:28.185Z,45.56
2023-04-25T12:36:54.677Z,45.49
2023-04-25T12:39:21.016Z,45.50
2023-04-25T12:41:47.484Z,45.49
2023-04-25T12:44:14.267Z,45.18
2023-04-25T12:46:42.563Z,45.05
2023-04-25T12:49:18.575Z,45.11
2023-04-25T12:51:57.354Z,45.16
2023-04-25T12:54:26.530Z,44.99
2023-04-25T12:56:52.968Z,44.88
2023-04-25T12:59:19.373Z,44.96
2023-04-25T13:01:45.800Z,45.05
2023-04-25T13:04:14.339Z,45.63
2023-04-25T13:06:43.598Z,45.58
2023-04-25T13:09:10.042Z,45.58
2023-04-25T13:11:37.274Z,45.90
2023-04-25T13:14:03.801Z,45.75
2023-04-25T13:16:30.273Z,45.79
2023-04-25T13:18:57.898Z,45.77
2023-04-25T13:21:24.395Z,45.94
2023-04-25T13:23:52.108Z,45.99
2023-04-25T13:26:19.631Z,46.03
2023-04-25T13:28:46.843Z,45.89
2023-04-25T13:31:14.076Z,45.67
2023-04-25T13:33:41.314Z,45.68
2023-04-25T13:36:08.541Z,45.67
2023-04-25T13:38:35.765Z,45.25
2023-04-25T13:41:03.014Z,45.59
2023-04-25T13:43:30.250Z,45.54
2023-04-25T13:45:56.619Z,45.40
2023-04-25T13:48:23.873Z,45.45
2023-04-25T13:50:50.238Z,45.32
2023-04-25T13:53:16.599Z,45.44
2023-04-25T13:55:42.918Z,45.10
2023-04-25T13:58:10.118Z,45.40
2023-04-25T14:00:36.464Z,45.35
2023-04-25T14:03:02.961Z,45.36
2023-04-25T14:05:29.390Z,45.40
2023-04-25T14:07:55.749Z,45.24
2023-04-25T14:10:22.104Z,45.16
2023-04-25T14:12:48.446Z,45.29
2023-04-25T14:15:14.795Z,45.57
2023-04-25T14:17:41.574Z,45.03
2023-04-25T14:20:08.227Z,45.36
2023-04-25T14:22:34.610Z,45.47
2023-04-25T14:25:00.964Z,45.43
2023-04-25T14:27:29.068Z,45.23
2023-04-25T14:29:55.644Z,45.09
2023-04-25T14:32:22.424Z,45.24
2023-04-25T14:34:48.792Z,45.40
2023-04-25T14:37:16.324Z,45.34
2023-04-25T14:39:44.158Z,45.47
2023-04-25T14:42:11.916Z,45.46
2023-04-25T14:44:38.566Z,45.76
2023-04-25T14:47:05.395Z,45.80
2023-04-25T14:49:32.119Z,45.82
2023-04-25T14:51:58.759Z,45.61
2023-04-25T14:54:25.965Z,45.96
2023-04-25T14:56:53.166Z,46.36
2023-04-25T14:59:19.550Z,46.52
2023-04-25T15:01:45.869Z,46.29
2023-04-25T15:04:13.193Z,46.79
2023-04-25T15:06:40.486Z,46.73
2023-04-25T15:09:06.861Z,46.87
2023-04-25T15:11:33.194Z,46.79
2023-04-25T15:13:59.527Z,47.01
2023-04-25T15:16:25.899Z,47.17
2023-04-25T15:18:52.277Z,47.24
2023-04-25T15:21:19.507Z,47.24
2023-04-25T15:23:45.873Z,47.41
2023-04-25T15:26:12.218Z,47.13
2023-04-25T15:28:38.606Z,47.40
2023-04-25T15:31:04.955Z,47.29
2023-04-25T15:33:31.294Z,47.53
2023-04-25T15:35:57.881Z,47.79
2023-04-25T15:38:24.243Z,47.62
2023-04-25T15:40:50.645Z,47.59
2023-04-25T15:43:17.893Z,47.31
2023-04-25T15:45:44.303Z,47.63
2023-04-25T15:48:10.690Z,47.37
2023-04-25T15:50:37.049Z,47.60
2023-04-25T15:53:04.434Z,47.76
2023-04-25T15:55:32.146Z,47.54
2023-04-25T15:57:58.493Z,47.60
2023-04-25T16:00:24.862Z,47.30
2023-04-25T16:02:51.270Z,47.76
2023-04-25T16:05:18.853Z,47.81
2023-04-25T16:07:45.404Z,47.58
2023-04-25T16:10:11.758Z,47.43
2023-04-25T16:12:38.133Z,47.46
2023-04-25T16:15:04.496Z,47.51
2023-04-25T16:17:30.805Z,47.41
2023-04-25T16:19:57.262Z,47.66
2023-04-25T16:22:23.710Z,47.53
2023-04-25T16:24:50.048Z,47.59
2023-04-25T16:27:16.381Z,47.83
2023-04-25T16:29:42.726Z,47.61
2023-04-25T16:32:09.927Z,47.45
2023-04-25T16:34:36.297Z,47.58
2023-04-25T16:37:02.628Z,47.15
2023-04-25T16:39:29.004Z,47.64
2023-04-25T16:41:55.382Z,47.75
2023-04-25T16:44:21.702Z,47.45
2023-04-25T16:46:48.098Z,47.27
2023-04-25T16:49:15.350Z,47.79
2023-04-25T16:51:41.674Z,47.44
2023-04-25T16:54:08.011Z,47.40
2023-04-25T16:56:34.376Z,47.43
2023-04-25T16:59:00.686Z,47.20
2023-04-25T17:01:27.020Z,47.61
2023-04-25T17:03:53.607Z,47.68
2023-04-25T17:06:20.976Z,47.62
2023-04-25T17:08:47.308Z,47.83
2023-04-25T17:11:13.625Z,47.52
2023-04-25T17:13:39.995Z,47.90
2023-04-25T17:16:06.434Z,47.57
2023-04-25T17:18:32.875Z,47.63
2023-04-25T17:20:59.214Z,47.57
2023-04-25T17:23:25.566Z,47.74
2023-04-25T17:25:51.946Z,47.75
2023-04-25T17:28:18.302Z,47.42
2023-04-25T17:30:44.702Z,47.74
2023-04-25T17:33:11.164Z,47.68
2023-04-25T17:35:37.540Z,47.70
2023-04-25T17:38:04.764Z,47.52
2023-04-25T17:40:31.085Z,48.02
2023-04-25T17:42:58.304Z,47.84
2023-04-25T17:45:24.678Z,47.63
2023-04-25T17:47:51.055Z,47.67
2023-04-25T17:50:17.441Z,47.85
2023-04-25T17:52:43.801Z,47.76
2023-04-25T17:55:12.930Z,47.58
2023-04-25T17:57:40.129Z,47.88
2023-04-25T18:00:06.485Z,47.70
2023-04-25T18:02:33.122Z,47.88
2023-04-25T18:04:59.646Z,47.73
2023-04-25T18:07:26.043Z,47.77
2023-04-25T18:09:52.424Z,47.84
2023-04-25T18:12:18.815Z,47.63
2023-04-25T18:14:45.159Z,47.52
2023-04-25T18:17:11.506Z,47.45
2023-04-25T18:19:37.853Z,47.83
2023-04-25T18:22:04.186Z,47.54
2023-04-25T18:24:30.514Z,47.84
2023-04-25T18:26:56.890Z,47.94
2023-04-25T18:29:33.137Z,47.70
2023-04-25T18:32:00.367Z,47.73
2023-04-25T18:34:27.573Z,47.94
2023-04-25T18:36:54.127Z,47.86
2023-04-25T18:39:22.865Z,47.78
2023-04-25T18:41:58.025Z,47.88
2023-04-25T18:44:26.321Z,47.65
2023-04-25T18:46:52.728Z,47.84
2023-04-25T18:49:19.952Z,47.85
2023-04-25T18:51:47.172Z,48.10
2023-04-25T18:54:13.535Z,47.91
2023-04-25T18:56:39.987Z,47.99
2023-04-25T18:59:06.462Z,47.82
2023-04-25T19:01:32.949Z,47.89
2023-04-25T19:03:59.731Z,47.90
2023-04-25T19:06:27.145Z,48.16
2023-04-25T19:08:53.670Z,48.12
2023-04-25T19:11:21.405Z,47.99
2023-04-25T19:13:50.575Z,48.17
2023-04-25T19:16:17.003Z,47.96
2023-04-25T19:18:43.360Z,48.00
2023-04-25T19:21:10.555Z,47.87
2023-04-25T19:23:36.954Z,47.91
2023-04-25T19:26:03.333Z,47.97
2023-04-25T19:28:30.568Z,48.18
2023-04-25T19:30:57.012Z,48.28
2023-04-25T19:33:23.395Z,48.01
2023-04-25T19:35:49.771Z,48.01
2023-04-25T19:38:16.154Z,48.01
2023-04-25T19:40:45.301Z,47.88
2023-04-25T19:43:12.118Z,48.06
2023-04-25T19:45:38.598Z,48.18
2023-04-25T19:48:05.052Z,48.31
2023-04-25T19:50:32.272Z,48.20
2023-04-25T19:52:58.694Z,48.19
2023-04-25T19:55:25.117Z,48.22
2023-04-25T19:57:51.633Z,48.04
2023-04-25T20:00:19.830Z,48.23
2023-04-25T20:02:46.669Z,48.12
2023-04-25T20:05:13.266Z,48.11
2023-04-25T20:07:39.649Z,48.02
2023-04-25T20:10:06.043Z,48.10
2023-04-25T20:12:32.443Z,48.17
2023-04-25T20:14:59.661Z,48.04
2023-04-25T20:17:26.097Z,48.21
2023-04-25T20:19:52.496Z,48.21
2023-04-25T20:22:18.909Z,48.31
2023-04-25T20:24:45.350Z,47.87
2023-04-25T20:27:12.578Z,48.00
2023-04-25T20:29:38.941Z,48.02
2023-04-25T20:32:05.429Z,48.07
2023-04-25T20:34:31.883Z,47.86
2023-04-25T20:36:58.316Z,48.11
2023-04-25T20:39:25.530Z,47.97
2023-04-25T20:41:51.861Z,47.83
2023-04-25T20:44:19.115Z,48.04
2023-04-25T20:46:45.472Z,47.88
2023-04-25T20:49:12.739Z,48.01
2023-04-25T20:51:39.106Z,47.92
2023-04-25T20:54:05.462Z,47.85
2023-04-25T20:56:31.831Z,47.90
2023-04-25T20:58:58.231Z,48.13
2023-04-25T21:01:24.665Z,47.84
2023-04-25T21:03:51.244Z,48.06
2023-04-25T21:06:18.628Z,47.93
2023-04-25T21:08:44.970Z,47.73
2023-04-25T21:11:12.188Z,48.01
2023-04-25T21:13:38.569Z,47.88
2023-04-25T21:16:05.780Z,48.01
2023-04-25T21:18:32.214Z,48.06
2023-04-25T21:20:58.595Z,47.82
2023-04-25T21:23:25.049Z,48.01
2023-04-25T21:25:51.436Z,48.07
2023-04-25T21:28:17.818Z,48.13
2023-04-25T21:30:45.053Z,48.18
2023-04-25T21:33:11.539Z,48.23
2023-04-25T21:35:38.875Z,47.81
2023-04-25T21:38:05.235Z,48.32
2023-04-25T21:40:31.585Z,48.24
2023-04-25T21:42:58.810Z,48.04
2023-04-25T21:45:25.158Z,48.01
2023-04-25T21:47:51.743Z,48.09
2023-04-25T21:50:20.075Z,48.09
2023-04-25T21:52:46.508Z,48.04
2023-04-25T21:55:12.936Z,48.20
2023-04-25T21:57:40.150Z,48.15
2023-04-25T22:00:07.400Z,48.31
2023-04-25T22:02:33.893Z,48.02
2023-04-25T22:05:00.344Z,48.10
2023-04-25T22:07:26.760Z,48.09
2023-04-25T22:09:55.505Z,48.20
2023-04-25T22:12:22.371Z,48.11
2023-04-25T22:14:48.801Z,48.12
2023-04-25T22:17:16.024Z,48.18
2023-04-25T22:19:42.376Z,48.12
2023-04-25T22:22:09.692Z,47.82
2023-04-25T22:24:36.060Z,47.91
2023-04-25T22:27:02.392Z,47.69
2023-04-25T22:29:28.719Z,47.85
2023-04-25T22:31:55.142Z,47.50
2023-04-25T22:34:21.633Z,47.77
2023-04-25T22:36:47.986Z,47.49
2023-04-25T22:39:15.212Z,47.65
2023-04-25T22:41:41.535Z,47.63
2023-04-25T22:44:07.879Z,47.42
2023-04-25T22:46:34.216Z,47.63
2023-04-25T22:49:00.545Z,47.40
2023-04-25T22:51:26.888Z,47.42
2023-04-25T22:53:56.010Z,47.54
2023-04-25T22:56:22.348Z,47.38
2023-04-25T22:58:48.773Z,47.49
2023-04-25T23:01:16.866Z,47.33
2023-04-25T23:03:44.775Z,47.40
2023-04-25T23:06:11.234Z,47.49
2023-04-25T23:08:37.610Z,47.34
2023-04-25T23:11:03.961Z,47.38
2023-04-25T23:13:30.303Z,47.34
2023-04-25T23:15:56.668Z,47.53
2023-04-25T23:18:23.018Z,47.21
2023-04-25T23:20:49.362Z,47.31
2023-04-25T23:23:15.717Z,47.27
2023-04-25T23:25:42.046Z,47.48
2023-04-25T23:28:08.365Z,47.41
2023-04-25T23:30:34.685Z,47.27
2023-04-25T23:33:01.071Z,47.37
2023-04-25T23:35:27.482Z,47.60
2023-04-25T23:37:53.818Z,47.26
2023-04-25T23:40:20.439Z,47.33
2023-04-25T23:42:47.162Z,47.05
2023-04-25T23:45:13.486Z,47.26
2023-04-25T23:47:39.848Z,46.90
2023-04-25T23:50:06.291Z,47.13
2023-04-25T23:52:32.600Z,47.19
2023-04-25T23:54:58.940Z,46.91
2023-04-25T23:57:25.281Z,47.06
2023-04-25T23:59:51.631Z,47.04
